• Join FlightAware (Why Join?)
  • Login
  • US Flag 
01:22AM EDT


 

Airport Tracker/Info


-or-


 

Live Flight TrackerFlight Track Log ✈ AWE1768 ✈ 24-Nov-2011 ✈ KCLT - KDCA

Flight Track Log - Related Links

Times and Time Zones

All times are in EST time to prevent confusion due to time zone crossing. See the AWE1768 flight status page for this flight to view local times or setup timezone preferences in your user account.

Time Position Orientation Groundspeed Altitude Reporting Facility
EST Latitude Longitude Course Direction KTS MPH feet Rate Location/Type
09:25PM 35.2790 -80.8496 219° Southwest  Level FlightAware Approximate
09:29PM 35.1939 -80.9331 174° South 166 191 1,700  Level FAA TRACON SMA TRACON (SMA)
09:30PM 35.1800 -80.9314 168° South 161 185 2,500 2,220 Climbing FAA TRACON SMA TRACON (SMA)
09:30PM 35.1614 -80.9264 126° Southeast 177 204 3,200 2,100 Climbing FAA TRACON SMA TRACON (SMA)
09:30PM 35.1514 -80.9097 95° East 195 224 3,900 2,760 Climbing FAA TRACON SMA TRACON (SMA)
09:31PM 35.1492 -80.8814 69° East 216 249 5,000 3,180 Climbing FAA TRACON SMA TRACON (SMA)
09:31PM 35.1558 -80.8603 44° Northeast 225 259 6,100 2,580 Climbing FAA TRACON SMA TRACON (SMA)
09:31PM 35.1703 -80.8431 44° Northeast 236 272 6,800 2,100 Climbing FAA TRACON SMA TRACON (SMA)
09:32PM 35.1906 -80.8192 223° Southwest 259 298 7,500 1,560 Climbing FAA TRACON SMA TRACON (SMA)
09:32PM 35.1839 -80.8267 49° Northeast 243 280 7,300 3,180 Descending Atlanta Center
09:33PM 35.2361 -80.7533 49° Northeast 264 304 10,700 2,760 Climbing Atlanta Center
09:34PM 35.3511 -80.5911 48° Northeast 372 428 14,700 2,220 Climbing FAA TRACON SMA TRACON (SMA)
09:35PM 35.3619 -80.5761 50° Northeast 375 432 15,200 2,400 Climbing FAA TRACON SMA TRACON (SMA)
09:37PM 35.5458 -80.3044 50° Northeast 395 455 21,500 2,400 Climbing Washington Center
09:38PM 35.6186 -80.1989 50° Northeast 395 455 23,500 2,340 Climbing Washington Center
09:39PM 35.6917 -80.0931 49° Northeast 405 466 26,300 1,740 Climbing Washington Center
09:40PM 35.7644 -79.9897 51° Northeast 400 460 27,000 300 Climbing Washington Center
09:41PM 35.8461 -79.8661 50° Northeast 430 495 27,000  Level Washington Center
09:42PM 35.9186 -79.7597 50° Northeast 446 513 27,000  Level Washington Center
09:43PM 36.0089 -79.6258 51° Northeast 465 535 27,000  Level Washington Center
09:44PM 36.0814 -79.5167 50° Northeast 460 529 27,000  Level Washington Center
09:45PM 36.1622 -79.3969 50° Northeast 455 524 27,000  Level Washington Center
09:46PM 36.2456 -79.2750 50° Northeast 462 532 27,000  Level Washington Center
09:47PM 36.3283 -79.1525 41° Northeast 462 532 27,000  Level Washington Center
09:48PM 36.4253 -79.0483 38° Northeast 457 526 27,000  Level Washington Center
09:49PM 36.5347 -78.9422 38° Northeast 451 519 27,000  Level Washington Center
09:50PM 36.6356 -78.8431 40° Northeast 458 527 27,000  Level Washington Center
09:51PM 36.7258 -78.7483 38° Northeast 453 521 27,000  Level Washington Center
09:52PM 36.8222 -78.6536 39° Northeast 453 521 27,000  Level Washington Center
09:53PM 36.9228 -78.5511 38° Northeast 453 521 27,000  Level Washington Center
09:54PM 37.0339 -78.4433 39° Northeast 453 521 27,000  Level Washington Center
09:55PM 37.1342 -78.3431 39° Northeast 458 527 27,000  Level Washington Center
09:56PM 37.2347 -78.2422 39° Northeast 453 521 27,000  Level Washington Center
09:57PM 37.3200 -78.1539 38° Northeast 453 521 27,000  Level Washington Center
09:58PM 37.4200 -78.0550 40° Northeast 446 513 27,000  Level Washington Center
09:59PM 37.5181 -77.9508 37° Northeast 452 520 27,000  Level Washington Center
10:00PM 37.6203 -77.8519 40° Northeast 452 520 27,000 -1,200 Level Washington Center
10:01PM 37.7181 -77.7497 39° Northeast 452 520 24,600 -2,700 Descending Washington Center
10:02PM 37.8136 -77.6500 38° Northeast 452 520 21,700 -2,760 Descending Washington Center
10:03PM 37.9069 -77.5578 39° Northeast 441 507 19,000 -2,460 Descending Washington Center
10:04PM 37.9958 -77.4653 39° Northeast 424 488 16,700 -2,700 Descending Washington Center
10:05PM 38.0933 -77.3647 39° Northeast 412 474 13,600 -2,700 Descending Washington Center
10:06PM 38.1803 -77.2744 40° Northeast 406 467 11,400 -1,680 Descending Washington Center
10:07PM 38.2606 -77.1889 22° Northeast 396 456 10,400 -720 Descending Washington Center
10:08PM 38.3550 -77.1406 North 364 419 10,000 -240 Descending Washington Center
10:09PM 38.4533 -77.1242 10° North 352 405 10,000 -60 Level Washington Center
10:10PM 38.5536 -77.1022 349° North 352 405 9,900 -60 Descending Washington Center
10:11PM 38.6367 -77.1225 350° North 332 382 9,900 -600 Level Washington Center
10:12PM 38.6833 -77.1333 319° Northwest 266 306 9,000 -1,320 Descending Potomac TRACON
10:12PM 38.6989 -77.1506 343° North 291 335 8,600 -1,860 Descending Washington Center
10:13PM 38.7653 -77.1758 345° North 261 300 6,500 -2,220 Descending Washington Center
10:15PM 38.8833 -77.2167 15° North 244 281 3,000 -1,440 Descending Potomac TRACON
10:16PM 38.9333 -77.2000 72° East 218 251 3,000 -540 Level Potomac TRACON
10:17PM 38.9500 -77.1333 72° East 201 231 2,000 -1,020 Descending Potomac TRACON